Time;durP1;ratioP1;P1;durP2;ratioP2;P2;SDS_P1;SDS_P2;PMS_P1;PMS_P2;Temp;Humidity;BMP_temperature;BMP_pressure;BME280_temperature;BME280_humidity;BME280_pressure;Samples;Min_cycle;Max_cycle;Signal;HPM_P1;HPM_P2
2022/06/08 00:00:35;;;;;;;1.23;1.00;;;;;;;;;;5071503;28;20541;-74
2022/06/08 00:03:05;;;;;;;1.87;1.30;;;;;;;;;;5070957;28;20560;-74
2022/06/08 00:05:32;;;;;;;1.60;1.30;;;;;;;;;;5071089;28;20528;-74
2022/06/08 00:07:59;;;;;;;1.77;1.17;;;;;;;;;;5071598;28;20477;-74
2022/06/08 00:10:26;;;;;;;1.77;1.40;;;;;;;;;;5071187;28;20457;-74
2022/06/08 00:12:54;;;;;;;1.93;1.30;;;;;;;;;;5066711;28;20509;-74
2022/06/08 00:15:22;;;;;;;1.30;1.20;;;;;;;;;;5070833;28;20560;-73
2022/06/08 00:17:50;;;;;;;1.50;1.37;;;;;;;;;;5070992;28;20474;-74
2022/06/08 00:20:17;;;;;;;1.10;1.00;;;;;;;;;;5071498;28;20529;-73
2022/06/08 00:22:44;;;;;;;2.20;1.20;;;;;;;;;;5070479;28;20481;-72
2022/06/08 00:25:12;;;;;;;1.37;1.03;;;;;;;;;;5070658;28;21001;-73
2022/06/08 00:27:39;;;;;;;2.30;1.57;;;;;;;;;;5071795;28;20456;-74
2022/06/08 00:30:08;;;;;;;2.70;1.60;;;;;;;;;;5070664;28;20539;-74
2022/06/08 00:32:36;;;;;;;2.10;1.50;;;;;;;;;;5071223;28;20567;-73
2022/06/08 00:35:05;;;;;;;2.53;1.53;;;;;;;;;;5069427;28;20993;-73
2022/06/08 00:37:32;;;;;;;1.30;0.93;;;;;;;;;;5071233;28;20497;-74
2022/06/08 00:39:59;;;;;;;1.57;1.40;;;;;;;;;;5070038;28;20509;-73
2022/06/08 00:42:26;;;;;;;1.50;1.00;;;;;;;;;;5070634;28;20526;-73
2022/06/08 00:44:56;;;;;;;2.27;1.20;;;;;;;;;;5069256;28;20490;-73
2022/06/08 00:47:26;;;;;;;2.00;1.20;;;;;;;;;;5070785;28;20955;-74
2022/06/08 00:49:56;;;;;;;2.83;1.30;;;;;;;;;;5069916;28;20445;-75
2022/06/08 00:52:23;;;;;;;1.87;1.20;;;;;;;;;;5070653;28;20519;-75
2022/06/08 00:54:52;;;;;;;2.60;1.23;;;;;;;;;;5069800;28;20481;-74
2022/06/08 00:57:21;;;;;;;1.50;1.40;;;;;;;;;;5070505;28;20945;-75
2022/06/08 00:59:50;;;;;;;1.30;1.20;;;;;;;;;;5070303;28;20785;-76
2022/06/08 01:02:17;;;;;;;1.90;1.50;;;;;;;;;;5070110;28;20953;-73
2022/06/08 01:04:44;;;;;;;1.30;1.10;;;;;;;;;;5069148;28;20452;-76
2022/06/08 01:07:17;;;;;;;1.53;1.43;;;;;;;;;;5070845;28;20450;-76
2022/06/08 01:09:44;;;;;;;2.17;1.10;;;;;;;;;;5070292;28;20450;-74
2022/06/08 01:12:13;;;;;;;2.20;1.43;;;;;;;;;;5070817;28;20784;-76
2022/06/08 01:14:40;;;;;;;4.10;1.13;;;;;;;;;;5069858;28;20473;-76
2022/06/08 01:17:09;;;;;;;1.83;1.50;;;;;;;;;;5070263;28;20898;-76
2022/06/08 01:19:37;;;;;;;2.03;1.30;;;;;;;;;;5070294;28;20460;-76
2022/06/08 01:22:07;;;;;;;1.47;1.00;;;;;;;;;;5070242;28;20851;-76
2022/06/08 01:24:35;;;;;;;1.57;1.47;;;;;;;;;;5070414;28;20464;-75
2022/06/08 01:27:18;;;;;;;1.70;1.30;;;;;;;;;;5070066;28;20813;-76
2022/06/08 01:29:51;;;;;;;1.77;1.20;;;;;;;;;;5070196;28;20446;-76
2022/06/08 01:32:21;;;;;;;1.70;1.10;;;;;;;;;;5059608;28;20441;-75
2022/06/08 01:34:55;;;;;;;2.33;1.33;;;;;;;;;;5069880;28;20924;-75
2022/06/08 01:37:29;;;;;;;2.10;1.60;;;;;;;;;;5074599;28;20445;-75
2022/06/08 01:40:04;;;;;;;2.13;1.33;;;;;;;;;;5073553;28;20492;-74
2022/06/08 01:42:43;;;;;;;2.03;1.50;;;;;;;;;;5067935;28;20463;-74
2022/06/08 01:45:33;;;;;;;1.70;1.20;;;;;;;;;;5074310;28;20455;-75
2022/06/08 01:48:18;;;;;;;3.23;1.33;;;;;;;;;;5074129;28;20487;-75
2022/06/08 01:50:53;;;;;;;2.23;1.57;;;;;;;;;;5073032;28;20437;-75
2022/06/08 01:53:30;;;;;;;1.73;1.47;;;;;;;;;;5074800;28;20441;-74
2022/06/08 01:56:00;;;;;;;1.20;1.00;;;;;;;;;;5073420;28;21036;-73
2022/06/08 01:58:30;;;;;;;1.70;1.33;;;;;;;;;;5074166;28;20814;-72
2022/06/08 02:01:02;;;;;;;1.80;1.20;;;;;;;;;;5072312;28;20491;-73
2022/06/08 02:03:33;;;;;;;1.33;1.23;;;;;;;;;;5066979;28;20475;-73
2022/06/08 02:06:06;;;;;;;1.50;1.40;;;;;;;;;;5073563;28;20453;-73
2022/06/08 02:08:38;;;;;;;1.87;1.20;;;;;;;;;;5073602;28;21019;-73
2022/06/08 02:11:09;;;;;;;2.73;1.67;;;;;;;;;;5060011;28;20936;-73
2022/06/08 02:13:39;;;;;;;2.07;1.57;;;;;;;;;;5073896;28;20455;-73
2022/06/08 02:16:08;;;;;;;1.30;1.00;;;;;;;;;;5073037;28;20472;-73
2022/06/08 02:18:37;;;;;;;1.60;1.37;;;;;;;;;;5073800;28;20559;-73
2022/06/08 02:21:11;;;;;;;1.50;1.40;;;;;;;;;;5072367;28;20536;-73
2022/06/08 02:23:43;;;;;;;1.40;1.23;;;;;;;;;;5073313;28;20448;-73
2022/06/08 02:26:13;;;;;;;1.53;1.27;;;;;;;;;;5074133;28;20454;-73
2022/06/08 02:28:42;;;;;;;2.03;1.10;;;;;;;;;;5074147;28;20515;-74
2022/06/08 02:31:13;;;;;;;1.30;1.20;;;;;;;;;;5073886;28;20488;-73
2022/06/08 02:36:28;;;;;;;2.10;1.57;;;;;;;;;;5072830;28;20464;-73
2022/06/08 02:39:00;;;;;;;1.30;1.17;;;;;;;;;;5072706;28;20449;-72
2022/06/08 02:41:28;;;;;;;2.10;1.40;;;;;;;;;;5072657;28;20988;-73
2022/06/08 02:43:58;;;;;;;2.00;1.30;;;;;;;;;;5072285;28;21024;-72
2022/06/08 02:46:28;;;;;;;1.90;1.67;;;;;;;;;;5073005;28;20816;-73
2022/06/08 02:48:55;;;;;;;1.40;0.93;;;;;;;;;;5072719;28;20525;-72
2022/06/08 02:51:27;;;;;;;1.10;0.90;;;;;;;;;;5072844;28;20450;-73
2022/06/08 02:53:59;;;;;;;1.77;1.23;;;;;;;;;;5072614;28;20442;-72
2022/06/08 02:56:33;;;;;;;2.23;1.30;;;;;;;;;;5073285;28;20472;-72
2022/06/08 02:59:02;;;;;;;1.40;1.03;;;;;;;;;;5072767;28;20472;-72
2022/06/08 03:01:32;;;;;;;1.30;1.20;;;;;;;;;;5073072;28;20453;-72
2022/06/08 03:04:02;;;;;;;1.73;1.30;;;;;;;;;;5072465;28;20449;-72
2022/06/08 03:06:34;;;;;;;2.17;1.77;;;;;;;;;;5072682;28;20460;-72
2022/06/08 03:09:04;;;;;;;2.10;1.57;;;;;;;;;;5071951;28;20468;-72
2022/06/08 03:11:35;;;;;;;1.80;1.40;;;;;;;;;;5072587;28;20446;-72
2022/06/08 03:14:04;;;;;;;1.83;1.40;;;;;;;;;;5071816;28;20442;-72
2022/06/08 03:16:32;;;;;;;2.07;1.60;;;;;;;;;;5072887;28;20492;-73
2022/06/08 03:18:59;;;;;;;1.80;1.47;;;;;;;;;;5072189;28;20515;-72
2022/06/08 03:21:26;;;;;;;1.50;1.17;;;;;;;;;;5075583;28;20446;-72
2022/06/08 03:23:54;;;;;;;1.73;1.30;;;;;;;;;;5067575;28;20461;-72
2022/06/08 03:26:24;;;;;;;1.70;1.10;;;;;;;;;;5060936;28;20457;-72
2022/06/08 03:28:51;;;;;;;2.03;1.30;;;;;;;;;;5071572;28;20453;-71
2022/06/08 03:31:18;;;;;;;1.70;1.23;;;;;;;;;;5072742;28;20452;-72
2022/06/08 03:33:45;;;;;;;1.83;1.20;;;;;;;;;;5071589;28;20442;-72
2022/06/08 03:36:14;;;;;;;2.37;1.47;;;;;;;;;;5072404;28;20489;-72
2022/06/08 03:38:42;;;;;;;2.10;1.90;;;;;;;;;;5072297;28;20808;-72
2022/06/08 03:41:10;;;;;;;2.00;1.80;;;;;;;;;;5071609;28;20480;-72
2022/06/08 03:43:38;;;;;;;1.30;1.17;;;;;;;;;;5072043;28;20437;-72
2022/06/08 03:46:06;;;;;;;1.23;1.10;;;;;;;;;;5071337;28;20458;-73
2022/06/08 03:48:34;;;;;;;1.30;1.10;;;;;;;;;;5071810;28;21008;-72
2022/06/08 03:51:01;;;;;;;1.60;1.17;;;;;;;;;;5071352;28;20457;-72
2022/06/08 03:53:30;;;;;;;1.80;1.27;;;;;;;;;;5071913;28;20450;-72
2022/06/08 03:55:58;;;;;;;2.17;1.47;;;;;;;;;;5071252;28;20474;-72
2022/06/08 03:58:26;;;;;;;1.10;1.00;;;;;;;;;;5070957;28;20442;-73
2022/06/08 04:00:55;;;;;;;1.57;1.33;;;;;;;;;;5070892;28;20496;-73
2022/06/08 04:03:22;;;;;;;1.80;1.37;;;;;;;;;;5071207;28;20793;-73
2022/06/08 04:05:49;;;;;;;1.40;1.20;;;;;;;;;;5070816;28;20454;-73
2022/06/08 04:08:16;;;;;;;2.20;1.60;;;;;;;;;;5071019;28;20809;-73
2022/06/08 04:10:44;;;;;;;2.13;1.93;;;;;;;;;;5071457;28;20480;-72
2022/06/08 04:13:11;;;;;;;1.60;1.30;;;;;;;;;;5071947;28;20454;-73
2022/06/08 04:15:45;;;;;;;1.70;1.33;;;;;;;;;;5071375;28;20488;-76
2022/06/08 04:18:14;;;;;;;1.30;1.07;;;;;;;;;;5072115;28;20821;-74
2022/06/08 04:20:42;;;;;;;1.60;1.30;;;;;;;;;;5071813;28;20456;-73
2022/06/08 04:23:10;;;;;;;1.50;1.37;;;;;;;;;;5071708;28;20950;-72
2022/06/08 04:25:37;;;;;;;5.90;1.40;;;;;;;;;;5070885;28;20800;-71
2022/06/08 04:28:04;;;;;;;3.27;1.13;;;;;;;;;;5071124;28;20460;-73
2022/06/08 04:30:32;;;;;;;6.77;3.20;;;;;;;;;;5058675;28;20450;-72
2022/06/08 04:32:59;;;;;;;1.73;1.63;;;;;;;;;;5070724;28;20454;-81
2022/06/08 04:35:28;;;;;;;1.37;1.10;;;;;;;;;;5070859;28;20438;-81
2022/06/08 04:37:55;;;;;;;2.63;1.60;;;;;;;;;;5071077;28;20450;-82
2022/06/08 04:40:23;;;;;;;2.03;1.60;;;;;;;;;;5071261;28;20477;-75
2022/06/08 04:42:51;;;;;;;3.00;0.90;;;;;;;;;;5070800;28;20901;-72
2022/06/08 04:45:18;;;;;;;1.80;1.20;;;;;;;;;;5070997;28;20454;-71
2022/06/08 04:47:46;;;;;;;1.60;1.40;;;;;;;;;;5070676;28;20507;-71
2022/06/08 04:50:14;;;;;;;2.40;1.27;;;;;;;;;;5071442;28;20457;-71
2022/06/08 04:52:43;;;;;;;2.40;1.30;;;;;;;;;;5070967;28;20460;-71
2022/06/08 04:55:11;;;;;;;1.60;1.10;;;;;;;;;;5070724;28;20456;-71
2022/06/08 04:57:38;;;;;;;1.80;1.30;;;;;;;;;;5070801;28;20512;-71
2022/06/08 05:00:06;;;;;;;1.50;1.40;;;;;;;;;;5070391;28;20458;-71
2022/06/08 05:02:47;;;;;;;1.23;1.00;;;;;;;;;;5070680;28;20447;-71
2022/06/08 05:05:16;;;;;;;1.07;0.97;;;;;;;;;;5071155;28;20477;-71
2022/06/08 05:07:45;;;;;;;1.20;1.10;;;;;;;;;;5070806;28;20468;-71
2022/06/08 05:10:12;;;;;;;1.30;1.20;;;;;;;;;;5071051;28;20459;-71
2022/06/08 05:12:39;;;;;;;2.10;1.13;;;;;;;;;;5070925;28;20454;-71
2022/06/08 05:15:07;;;;;;;1.70;1.17;;;;;;;;;;5070393;28;20575;-71
2022/06/08 05:17:35;;;;;;;2.07;1.23;;;;;;;;;;5070881;28;20592;-71
2022/06/08 05:20:02;;;;;;;1.67;1.10;;;;;;;;;;5070087;28;20937;-71
2022/06/08 05:22:29;;;;;;;1.47;0.90;;;;;;;;;;5070634;28;20464;-71
2022/06/08 05:24:58;;;;;;;1.40;1.03;;;;;;;;;;5070173;28;20542;-71
2022/06/08 05:27:25;;;;;;;1.40;1.20;;;;;;;;;;5070604;28;20467;-71
2022/06/08 05:29:52;;;;;;;1.87;1.50;;;;;;;;;;5070388;28;20464;-71
2022/06/08 05:32:20;;;;;;;1.87;0.90;;;;;;;;;;5070505;28;20456;-71
2022/06/08 05:34:47;;;;;;;1.93;1.13;;;;;;;;;;5069846;28;20448;-71
2022/06/08 05:37:14;;;;;;;1.00;0.80;;;;;;;;;;5070567;28;20486;-71
2022/06/08 05:39:42;;;;;;;1.50;1.23;;;;;;;;;;5070340;28;20465;-71
2022/06/08 05:42:11;;;;;;;2.97;1.10;;;;;;;;;;5070477;28;20459;-71
2022/06/08 05:44:38;;;;;;;1.93;0.90;;;;;;;;;;5070251;28;20444;-71
2022/06/08 05:47:05;;;;;;;1.27;0.90;;;;;;;;;;5070038;28;20476;-71
2022/06/08 05:49:34;;;;;;;1.57;1.10;;;;;;;;;;5070461;28;20452;-71
2022/06/08 05:52:02;;;;;;;1.63;1.00;;;;;;;;;;5069228;28;20536;-71
2022/06/08 05:54:30;;;;;;;1.83;1.20;;;;;;;;;;5070488;28;20527;-71
2022/06/08 05:56:57;;;;;;;2.83;1.10;;;;;;;;;;5069506;28;20478;-71
2022/06/08 05:59:25;;;;;;;2.17;1.77;;;;;;;;;;5070160;28;20446;-71
2022/06/08 06:01:53;;;;;;;3.53;1.13;;;;;;;;;;5069401;28;20450;-71
2022/06/08 06:04:20;;;;;;;1.10;0.90;;;;;;;;;;5070217;28;20461;-71
2022/06/08 06:06:48;;;;;;;2.07;0.87;;;;;;;;;;5069496;28;20945;-72
2022/06/08 06:09:15;;;;;;;2.27;1.30;;;;;;;;;;5070284;28;20458;-70
2022/06/08 06:11:43;;;;;;;1.93;0.90;;;;;;;;;;5069575;28;20460;-70
2022/06/08 06:14:10;;;;;;;1.47;1.00;;;;;;;;;;5070342;28;20456;-70
2022/06/08 06:16:39;;;;;;;1.83;1.33;;;;;;;;;;5070403;28;20575;-70
2022/06/08 06:19:06;;;;;;;1.00;0.80;;;;;;;;;;5069696;28;20463;-70
2022/06/08 06:21:34;;;;;;;1.53;0.93;;;;;;;;;;5071141;28;20748;-70
2022/06/08 06:24:02;;;;;;;4.10;0.97;;;;;;;;;;5073395;28;20544;-70
2022/06/08 06:26:30;;;;;;;4.40;1.23;;;;;;;;;;5073387;28;20540;-70
2022/06/08 06:28:57;;;;;;;2.27;1.00;;;;;;;;;;5073366;28;20850;-70
2022/06/08 06:31:26;;;;;;;3.23;1.43;;;;;;;;;;5073309;28;20454;-71
2022/06/08 06:33:54;;;;;;;1.20;1.10;;;;;;;;;;5073216;28;20481;-70
2022/06/08 06:36:21;;;;;;;1.30;1.00;;;;;;;;;;5073549;28;20485;-70
2022/06/08 06:38:48;;;;;;;1.10;0.90;;;;;;;;;;5072779;28;20452;-70
2022/06/08 06:41:17;;;;;;;1.37;0.80;;;;;;;;;;5072530;28;20489;-70
2022/06/08 06:43:44;;;;;;;2.30;0.97;;;;;;;;;;5072761;28;20449;-70
2022/06/08 06:46:11;;;;;;;1.20;1.10;;;;;;;;;;5073571;28;20449;-70
2022/06/08 06:48:39;;;;;;;2.80;1.20;;;;;;;;;;5073656;28;20555;-70
2022/06/08 06:51:07;;;;;;;1.57;0.90;;;;;;;;;;5072119;28;20966;-70
2022/06/08 06:53:35;;;;;;;1.63;1.37;;;;;;;;;;5073088;28;20457;-71
2022/06/08 06:56:02;;;;;;;1.50;0.93;;;;;;;;;;5072330;28;20452;-70
2022/06/08 06:58:30;;;;;;;1.23;1.00;;;;;;;;;;5073443;28;20493;-70
2022/06/08 07:00:57;;;;;;;1.97;0.93;;;;;;;;;;5071903;28;20445;-71
2022/06/08 07:03:24;;;;;;;2.00;1.00;;;;;;;;;;5073345;28;20477;-71
2022/06/08 07:05:51;;;;;;;1.40;0.90;;;;;;;;;;5072087;28;20960;-71
2022/06/08 07:08:20;;;;;;;4.83;1.10;;;;;;;;;;5072964;28;20445;-71
2022/06/08 07:11:32;;;;;;;1.30;0.80;;;;;;;;;;5072142;28;20458;-71
2022/06/08 07:13:35;;;;;;;1.23;0.90;;;;;;;;;;5067215;28;20478;-71
2022/06/08 07:16:02;;;;;;;2.30;1.10;;;;;;;;;;5072671;28;20456;-71
2022/06/08 07:18:30;;;;;;;1.47;0.80;;;;;;;;;;5072964;28;20836;-71
2022/06/08 07:20:57;;;;;;;1.00;0.70;;;;;;;;;;5071922;28;20446;-72
2022/06/08 07:23:25;;;;;;;2.10;1.20;;;;;;;;;;5072925;28;20465;-71
2022/06/08 07:25:52;;;;;;;1.90;0.80;;;;;;;;;;5072242;28;20448;-71
2022/06/08 07:28:19;;;;;;;4.50;1.37;;;;;;;;;;5072763;28;20460;-72
2022/06/08 07:30:47;;;;;;;5.33;0.90;;;;;;;;;;5072072;28;20456;-71
2022/06/08 07:33:14;;;;;;;4.23;1.40;;;;;;;;;;5071134;28;20994;-72
2022/06/08 07:35:42;;;;;;;1.83;0.87;;;;;;;;;;5072950;28;20454;-72
2022/06/08 07:38:09;;;;;;;1.60;1.07;;;;;;;;;;5072347;28;20492;-71
2022/06/08 07:40:37;;;;;;;1.27;0.90;;;;;;;;;;5072187;28;20488;-71
2022/06/08 07:43:05;;;;;;;1.73;1.20;;;;;;;;;;5072053;28;20460;-71
2022/06/08 07:45:32;;;;;;;2.50;1.07;;;;;;;;;;5072581;28;20537;-71
2022/06/08 07:50:44;;;;;;;1.03;0.90;;;;;;;;;;5071866;28;20425;-71
2022/06/08 07:53:11;;;;;;;1.53;0.80;;;;;;;;;;5072542;28;20445;-71
2022/06/08 07:55:40;;;;;;;2.17;1.27;;;;;;;;;;5072479;28;20442;-71
2022/06/08 07:58:07;;;;;;;1.47;0.93;;;;;;;;;;5071704;28;20496;-71
2022/06/08 08:00:35;;;;;;;3.40;1.27;;;;;;;;;;5072048;28;20461;-71
2022/06/08 08:03:02;;;;;;;1.20;0.90;;;;;;;;;;5071693;28;20797;-71
2022/06/08 08:05:29;;;;;;;2.13;0.83;;;;;;;;;;5071785;28;20937;-71
2022/06/08 08:07:56;;;;;;;1.10;0.90;;;;;;;;;;5071720;28;20446;-71
2022/06/08 08:10:25;;;;;;;1.53;0.97;;;;;;;;;;5071708;28;20512;-71
2022/06/08 08:12:55;;;;;;;2.03;0.97;;;;;;;;;;5071521;28;20481;-71
2022/06/08 08:15:23;;;;;;;2.20;0.93;;;;;;;;;;5072209;28;20491;-71
2022/06/08 08:17:50;;;;;;;1.63;1.00;;;;;;;;;;5071362;28;20485;-72
2022/06/08 08:20:18;;;;;;;2.00;0.73;;;;;;;;;;5071550;28;20453;-71
2022/06/08 08:22:46;;;;;;;1.90;0.97;;;;;;;;;;5071340;28;20811;-71
2022/06/08 08:25:15;;;;;;;3.00;1.10;;;;;;;;;;5071336;28;20956;-71
2022/06/08 08:27:42;;;;;;;1.93;1.00;;;;;;;;;;5071761;28;20449;-71
2022/06/08 08:30:13;;;;;;;2.10;1.07;;;;;;;;;;5071337;28;20446;-70
2022/06/08 08:32:41;;;;;;;1.10;0.80;;;;;;;;;;5071908;28;20450;-71
2022/06/08 08:35:08;;;;;;;1.67;0.80;;;;;;;;;;5070900;28;20456;-70
2022/06/08 08:37:36;;;;;;;2.53;0.93;;;;;;;;;;5071399;28;20576;-70
2022/06/08 08:40:04;;;;;;;1.27;0.80;;;;;;;;;;5070064;28;20485;-71
2022/06/08 08:42:31;;;;;;;1.70;1.17;;;;;;;;;;5071384;28;20438;-71
2022/06/08 08:45:01;;;;;;;1.10;1.00;;;;;;;;;;5070222;28;20454;-72
2022/06/08 08:47:34;;;;;;;2.33;1.10;;;;;;;;;;5071504;28;20460;-72
2022/06/08 08:50:04;;;;;;;2.03;0.90;;;;;;;;;;5070458;28;20456;-71
2022/06/08 08:52:36;;;;;;;4.77;1.17;;;;;;;;;;5071490;28;20450;-71
2022/06/08 08:55:06;;;;;;;1.47;0.80;;;;;;;;;;5070794;28;20799;-71
2022/06/08 08:57:38;;;;;;;3.53;1.33;;;;;;;;;;5071102;28;20878;-70
2022/06/08 09:00:11;;;;;;;4.60;0.97;;;;;;;;;;5070064;28;20559;-70
2022/06/08 09:05:24;;;;;;;2.13;1.10;;;;;;;;;;5070957;28;20773;-70
2022/06/08 09:07:51;;;;;;;3.20;1.30;;;;;;;;;;5070570;28;20457;-70
2022/06/08 09:10:19;;;;;;;1.57;1.10;;;;;;;;;;5070593;28;20460;-70
2022/06/08 09:12:46;;;;;;;1.67;1.07;;;;;;;;;;5070256;28;20481;-70
2022/06/08 09:15:14;;;;;;;1.00;0.90;;;;;;;;;;5071168;28;20438;-70
2022/06/08 09:17:52;;;;;;;1.30;0.90;;;;;;;;;;5070732;28;20497;-70
2022/06/08 09:20:25;;;;;;;2.57;1.00;;;;;;;;;;5070563;28;20785;-71
2022/06/08 09:22:54;;;;;;;2.30;1.10;;;;;;;;;;5070202;28;20936;-70
2022/06/08 09:25:26;;;;;;;2.43;0.70;;;;;;;;;;5070937;28;20446;-70
2022/06/08 09:27:55;;;;;;;1.17;0.83;;;;;;;;;;5070486;28;20453;-72
2022/06/08 09:30:24;;;;;;;1.40;1.20;;;;;;;;;;5070416;28;20762;-72
2022/06/08 09:32:53;;;;;;;4.03;1.40;;;;;;;;;;5070349;28;20446;-71
2022/06/08 09:35:24;;;;;;;2.27;1.00;;;;;;;;;;5070667;28;20445;-72
2022/06/08 09:37:52;;;;;;;2.00;0.87;;;;;;;;;;5070239;28;20485;-71
2022/06/08 09:43:04;;;;;;;1.63;0.70;;;;;;;;;;5069695;28;20766;-71
2022/06/08 09:45:36;;;;;;;2.20;0.63;;;;;;;;;;5070747;28;20454;-72
2022/06/08 09:53:52;;;;;;;0.83;0.60;;;;;;;;;;5070196;28;20931;-70
2022/06/08 09:56:24;;;;;;;1.13;0.77;;;;;;;;;;5071696;28;20459;-72
2022/06/08 09:59:01;;;;;;;1.70;0.70;;;;;;;;;;5074096;28;20480;-70
2022/06/08 10:01:31;;;;;;;1.57;0.83;;;;;;;;;;5074248;28;20479;-71
2022/06/08 10:04:04;;;;;;;1.73;0.90;;;;;;;;;;5073879;28;20446;-70
2022/06/08 10:06:36;;;;;;;0.87;0.80;;;;;;;;;;5074238;28;20962;-70
2022/06/08 10:09:11;;;;;;;1.60;0.87;;;;;;;;;;5073857;28;20608;-70
2022/06/08 10:11:42;;;;;;;0.70;0.70;;;;;;;;;;5073706;28;20457;-70
2022/06/08 10:14:16;;;;;;;3.53;0.97;;;;;;;;;;5074094;28;20460;-70
2022/06/08 10:16:46;;;;;;;4.23;0.80;;;;;;;;;;5074121;28;20952;-70
2022/06/08 10:19:19;;;;;;;1.43;1.03;;;;;;;;;;5074142;28;20488;-70
2022/06/08 10:21:46;;;;;;;1.63;0.80;;;;;;;;;;5073243;28;20449;-72
2022/06/08 10:24:17;;;;;;;0.80;0.60;;;;;;;;;;5073875;28;20452;-70
2022/06/08 10:26:46;;;;;;;0.70;0.70;;;;;;;;;;5073829;28;20446;-70
2022/06/08 10:29:15;;;;;;;0.73;0.70;;;;;;;;;;5074273;28;20453;-70
2022/06/08 10:31:45;;;;;;;2.70;0.80;;;;;;;;;;5073682;28;20443;-70
2022/06/08 10:34:14;;;;;;;0.87;0.70;;;;;;;;;;5074099;28;20453;-70
2022/06/08 10:36:44;;;;;;;3.63;0.87;;;;;;;;;;5073504;28;20458;-70
2022/06/08 10:39:13;;;;;;;2.20;0.87;;;;;;;;;;5074003;28;20504;-70
2022/06/08 10:44:32;;;;;;;1.33;0.80;;;;;;;;;;5073417;28;20837;-70
2022/06/08 10:47:09;;;;;;;2.93;1.00;;;;;;;;;;5073092;28;20438;-70
2022/06/08 10:49:50;;;;;;;1.40;0.70;;;;;;;;;;5073328;28;20515;-70
2022/06/08 10:52:27;;;;;;;1.00;0.73;;;;;;;;;;5073670;28;20500;-70
2022/06/08 10:54:54;;;;;;;2.03;0.80;;;;;;;;;;5072954;28;20733;-70
2022/06/08 10:57:54;;;;;;;1.23;0.70;;;;;;;;;;5073254;28;20536;-70
2022/06/08 11:00:27;;;;;;;1.33;0.80;;;;;;;;;;5072776;28;20441;-70
2022/06/08 11:02:57;;;;;;;0.93;0.60;;;;;;;;;;5072777;28;20503;-70
2022/06/08 11:05:31;;;;;;;1.00;0.63;;;;;;;;;;5073352;28;20456;-70
2022/06/08 11:08:16;;;;;;;1.27;1.10;;;;;;;;;;5060491;28;20467;-70
2022/06/08 11:11:00;;;;;;;3.20;1.00;;;;;;;;;;5072648;28;20457;-70
2022/06/08 11:13:32;;;;;;;0.70;0.70;;;;;;;;;;5066114;28;20503;-70
2022/06/08 11:16:01;;;;;;;1.37;0.87;;;;;;;;;;5072485;28;20446;-70
2022/06/08 11:18:31;;;;;;;1.37;1.00;;;;;;;;;;5072943;28;20492;-71
2022/06/08 11:21:19;;;;;;;1.13;0.73;;;;;;;;;;5072104;28;20446;-71
2022/06/08 11:23:49;;;;;;;0.93;0.60;;;;;;;;;;5072180;28;20937;-70
2022/06/08 11:26:25;;;;;;;0.80;0.70;;;;;;;;;;5072853;28;20932;-70
2022/06/08 11:28:54;;;;;;;1.30;0.80;;;;;;;;;;5072589;28;20441;-71
2022/06/08 11:31:38;;;;;;;0.70;0.70;;;;;;;;;;5072252;28;20918;-70
2022/06/08 11:34:13;;;;;;;1.00;0.70;;;;;;;;;;5071880;28;20469;-70
2022/06/08 11:36:50;;;;;;;1.27;0.60;;;;;;;;;;5072945;28;20839;-71
2022/06/08 11:39:24;;;;;;;1.43;0.70;;;;;;;;;;5072923;28;20856;-70
2022/06/08 11:42:01;;;;;;;1.10;0.80;;;;;;;;;;5071258;28;20481;-70
2022/06/08 11:44:33;;;;;;;1.03;0.93;;;;;;;;;;5072634;28;20437;-70
2022/06/08 11:47:04;;;;;;;1.57;0.60;;;;;;;;;;5071986;28;20859;-70
2022/06/08 11:49:33;;;;;;;2.50;1.40;;;;;;;;;;5072480;28;20465;-71
2022/06/08 11:52:17;;;;;;;2.03;0.90;;;;;;;;;;5071520;28;20966;-70
2022/06/08 11:54:45;;;;;;;2.10;0.73;;;;;;;;;;5071763;28;20971;-70
2022/06/08 11:57:14;;;;;;;0.80;0.60;;;;;;;;;;5072292;28;20445;-70
2022/06/08 11:59:44;;;;;;;0.60;0.50;;;;;;;;;;5071793;28;20488;-70
2022/06/08 12:02:19;;;;;;;0.90;0.70;;;;;;;;;;5072287;28;20869;-71
2022/06/08 12:04:48;;;;;;;1.33;0.67;;;;;;;;;;5071393;28;20433;-70
2022/06/08 12:07:30;;;;;;;1.10;0.70;;;;;;;;;;5072185;28;20472;-70
2022/06/08 12:09:59;;;;;;;0.93;0.90;;;;;;;;;;5071358;28;20544;-71
2022/06/08 12:12:28;;;;;;;1.37;0.83;;;;;;;;;;5071948;28;20456;-71
2022/06/08 12:14:55;;;;;;;2.67;1.10;;;;;;;;;;5071536;28;20578;-71
2022/06/08 12:17:26;;;;;;;1.57;0.80;;;;;;;;;;5071947;28;20460;-71
2022/06/08 12:19:55;;;;;;;0.70;0.60;;;;;;;;;;5070051;28;20469;-71
2022/06/08 12:22:23;;;;;;;1.37;0.70;;;;;;;;;;5071864;28;20544;-71
2022/06/08 12:27:54;;;;;;;1.03;0.80;;;;;;;;;;5149026;27;20818;-72
2022/06/08 12:30:22;;;;;;;0.90;0.60;;;;;;;;;;5128841;28;20462;-71
2022/06/08 12:32:54;;;;;;;0.73;0.67;;;;;;;;;;5128594;28;20450;-71
2022/06/08 12:35:26;;;;;;;1.13;0.80;;;;;;;;;;5128967;28;20818;-71
2022/06/08 12:38:09;;;;;;;1.30;0.63;;;;;;;;;;5128116;28;20439;-71
2022/06/08 12:40:36;;;;;;;1.20;0.90;;;;;;;;;;5128829;28;20438;-71
2022/06/08 12:43:19;;;;;;;0.90;0.70;;;;;;;;;;5128224;28;20814;-71
2022/06/08 12:45:49;;;;;;;1.60;0.67;;;;;;;;;;5128363;28;20482;-71
2022/06/08 12:48:22;;;;;;;3.20;0.70;;;;;;;;;;5128537;28;20450;-71
2022/06/08 12:50:49;;;;;;;1.10;0.90;;;;;;;;;;5127559;28;20454;-70
2022/06/08 12:53:17;;;;;;;1.90;0.70;;;;;;;;;;5128466;28;20451;-72
2022/06/08 12:55:44;;;;;;;0.90;0.87;;;;;;;;;;5128324;28;20450;-71
2022/06/08 12:58:12;;;;;;;0.93;0.70;;;;;;;;;;5128784;28;20447;-71
2022/06/08 13:00:46;;;;;;;1.50;0.67;;;;;;;;;;5128500;28;20451;-71
2022/06/08 13:03:16;;;;;;;0.90;0.70;;;;;;;;;;5128922;28;20438;-70
2022/06/08 13:05:44;;;;;;;1.27;0.80;;;;;;;;;;5128071;28;20450;-70
2022/06/08 13:08:14;;;;;;;0.80;0.50;;;;;;;;;;5128402;28;20450;-71
2022/06/08 13:10:41;;;;;;;1.77;0.70;;;;;;;;;;5128125;28;20802;-71
2022/06/08 13:13:09;;;;;;;0.93;0.73;;;;;;;;;;5127416;28;20458;-71
2022/06/08 13:15:39;;;;;;;1.23;0.60;;;;;;;;;;5128624;28;20713;-71
2022/06/08 13:18:08;;;;;;;1.00;0.80;;;;;;;;;;5127814;28;20447;-71
2022/06/08 13:20:36;;;;;;;1.10;0.60;;;;;;;;;;5127423;28;20451;-71
2022/06/08 13:23:04;;;;;;;0.87;0.60;;;;;;;;;;5127619;28;20876;-71
2022/06/08 13:25:33;;;;;;;2.80;0.60;;;;;;;;;;5127623;28;20831;-70
2022/06/08 13:28:01;;;;;;;1.20;0.70;;;;;;;;;;5127378;28;20567;-71
2022/06/08 13:30:33;;;;;;;0.60;0.57;;;23.10;63.80;;;;;;5127445;27;20451;-71
2022/06/08 13:33:00;;;;;;;0.60;0.60;;;24.90;1.00;;;;;;5127464;27;20511;-71
2022/06/08 13:35:32;;;;;;;0.87;0.83;;;24.90;1.00;;;;;;5127718;28;20527;-70
2022/06/08 13:37:59;;;;;;;2.50;0.90;;;24.60;1.00;;;;;;5119512;28;20962;-71
2022/06/08 13:40:29;;;;;;;0.80;0.63;;;25.20;1.00;;;;;;5113782;28;20459;-71
2022/06/08 13:42:58;;;;;;;0.60;0.60;;;25.00;1.00;;;;;;5113650;28;20462;-71
2022/06/08 13:45:29;;;;;;;0.73;0.60;;;25.20;1.00;;;;;;5113877;28;20451;-71
2022/06/08 13:47:58;;;;;;;1.13;0.70;;;25.40;3.20;;;;;;5113506;28;20474;-71
2022/06/08 13:50:28;;;;;;;3.33;0.90;;;25.00;1.00;;;;;;5113696;28;20447;-71
2022/06/08 13:52:58;;;;;;;1.67;0.70;;;24.40;1.00;;;;;;5113564;28;20444;-71
2022/06/08 13:55:35;;;;;;;0.60;0.50;;;24.80;1.00;;;;;;5113812;28;20454;-71
2022/06/08 13:58:03;;;;;;;0.90;0.70;;;24.50;1.00;;;;;;5113298;28;20549;-71
2022/06/08 14:00:33;;;;;;;0.70;0.60;;;24.50;1.00;;;;;;5113419;28;20447;-71
2022/06/08 14:03:03;;;;;;;0.63;0.60;;;24.30;1.00;;;;;;5113255;28;20547;-72
2022/06/08 14:13:51;;;;;;;0.80;0.70;;;24.00;1.00;;;;;;5112919;28;20420;-72
2022/06/08 14:16:19;;;;;;;0.90;0.60;;;23.90;1.00;;;;;;5113603;28;20456;-70
2022/06/08 14:18:50;;;;;;;1.93;0.80;;;24.00;1.00;;;;;;5112966;28;20467;-72
2022/06/08 14:21:17;;;;;;;0.90;0.73;;;24.10;1.00;;;;;;5112845;28;20436;-71
2022/06/08 14:23:48;;;;;;;1.60;0.80;;;23.80;1.00;;;;;;5112838;28;20534;-72
2022/06/08 14:26:18;;;;;;;1.77;0.80;;;23.60;1.00;;;;;;5113079;28;20506;-71
2022/06/08 14:28:47;;;;;;;1.10;0.60;;;23.40;1.00;;;;;;5112619;28;20475;-71
2022/06/08 14:31:17;;;;;;;0.70;0.50;;;;;;;;;;5112977;28;20793;-71
2022/06/08 14:33:44;;;;;;;0.93;0.90;;;;;;;;;;5112991;28;20451;-71
2022/06/08 14:36:14;;;;;;;1.63;0.83;;;;;;;;;;5113295;28;20466;-71
2022/06/08 14:38:41;;;;;;;1.00;0.70;;;;;;;;;;5099471;28;20444;-71
2022/06/08 14:41:10;;;;;;;1.67;1.00;;;;;;;;;;5112112;28;20444;-71
2022/06/08 14:43:37;;;;;;;1.03;0.93;;;;;;;;;;5112588;28;20496;-71
2022/06/08 14:46:04;;;;;;;2.60;1.00;;;;;;;;;;5112267;28;20895;-70
2022/06/08 14:48:38;;;;;;;0.90;0.63;;;;;;;;;;5112749;28;20473;-70
2022/06/08 14:51:07;;;;;;;2.83;1.00;;;;;;;;;;5110996;28;20537;-71
2022/06/08 14:53:34;;;;;;;1.77;1.00;;;;;;;;;;5112751;28;20455;-71
2022/06/08 14:58:54;;;;;;;1.43;1.00;;;;;;;;;;5090882;28;20428;-71
2022/06/08 15:01:22;;;;;;;0.90;0.70;;;;;;;;;;5111867;28;20451;-71
2022/06/08 15:03:51;;;;;;;1.30;0.80;;;;;;;;;;5111964;28;20454;-71
2022/06/08 15:06:18;;;;;;;2.00;1.00;;;;;;;;;;5112424;28;20448;-71
2022/06/08 15:08:47;;;;;;;2.20;1.10;;;;;;;;;;5112054;28;20454;-72
2022/06/08 15:14:15;;;;;;;1.40;0.93;;;;;;;;;;5111746;28;20419;-71
2022/06/08 15:16:42;;;;;;;2.03;1.10;;;;;;;;;;5112669;28;20440;-71
2022/06/08 15:19:12;;;;;;;1.97;0.83;;;;;;;;;;5112400;28;20458;-72
2022/06/08 15:21:39;;;;;;;2.03;1.00;;;;;;;;;;5111894;28;20440;-71
2022/06/08 15:24:06;;;;;;;1.10;1.00;;;;;;;;;;5111402;28;20447;-71
2022/06/08 15:26:34;;;;;;;1.00;0.90;;;;;;;;;;5111855;28;20579;-71